sensor_id;sensor_type;location;lat;lon;timestamp;P1;durP1;ratioP1;P2;durP2;ratioP2
9140;SDS011;46330;50.822;7.126;2023-07-30T00:01:35;7.63;;;4.75;;
9140;SDS011;46330;50.822;7.126;2023-07-30T00:04:03;9.82;;;4.90;;
9140;SDS011;46330;50.822;7.126;2023-07-30T00:06:32;8.25;;;4.60;;
9140;SDS011;46330;50.822;7.126;2023-07-30T00:08:59;12.40;;;4.50;;
9140;SDS011;46330;50.822;7.126;2023-07-30T00:11:27;7.13;;;4.10;;
9140;SDS011;46330;50.822;7.126;2023-07-30T00:13:56;6.97;;;3.83;;
9140;SDS011;46330;50.822;7.126;2023-07-30T00:16:25;7.07;;;3.92;;
9140;SDS011;46330;50.822;7.126;2023-07-30T00:18:53;6.20;;;3.95;;
9140;SDS011;46330;50.822;7.126;2023-07-30T00:21:21;7.97;;;4.38;;
9140;SDS011;46330;50.822;7.126;2023-07-30T00:23:49;6.57;;;3.72;;
9140;SDS011;46330;50.822;7.126;2023-07-30T00:26:17;7.93;;;4.25;;
9140;SDS011;46330;50.822;7.126;2023-07-30T00:28:44;9.43;;;4.32;;
9140;SDS011;46330;50.822;7.126;2023-07-30T00:31:14;7.43;;;4.03;;
9140;SDS011;46330;50.822;7.126;2023-07-30T00:33:41;9.27;;;4.38;;
9140;SDS011;46330;50.822;7.126;2023-07-30T00:38:49;12.70;;;4.13;;
9140;SDS011;46330;50.822;7.126;2023-07-30T00:41:17;10.00;;;4.22;;
9140;SDS011;46330;50.822;7.126;2023-07-30T00:43:45;6.72;;;4.28;;
9140;SDS011;46330;50.822;7.126;2023-07-30T00:46:15;6.75;;;4.15;;
9140;SDS011;46330;50.822;7.126;2023-07-30T00:48:44;9.35;;;4.32;;
9140;SDS011;46330;50.822;7.126;2023-07-30T00:51:12;6.10;;;3.85;;
9140;SDS011;46330;50.822;7.126;2023-07-30T00:53:41;10.23;;;4.47;;
9140;SDS011;46330;50.822;7.126;2023-07-30T00:56:09;6.95;;;3.75;;
9140;SDS011;46330;50.822;7.126;2023-07-30T00:58:37;4.85;;;3.50;;
9140;SDS011;46330;50.822;7.126;2023-07-30T01:01:05;5.97;;;4.00;;
9140;SDS011;46330;50.822;7.126;2023-07-30T01:03:34;6.82;;;4.03;;
9140;SDS011;46330;50.822;7.126;2023-07-30T01:06:02;6.88;;;3.90;;
9140;SDS011;46330;50.822;7.126;2023-07-30T01:08:30;7.45;;;4.00;;
9140;SDS011;46330;50.822;7.126;2023-07-30T01:10:58;7.90;;;3.90;;
9140;SDS011;46330;50.822;7.126;2023-07-30T01:13:27;7.20;;;3.75;;
9140;SDS011;46330;50.822;7.126;2023-07-30T01:15:56;8.13;;;3.45;;
9140;SDS011;46330;50.822;7.126;2023-07-30T01:18:24;5.53;;;3.30;;
9140;SDS011;46330;50.822;7.126;2023-07-30T01:20:54;7.28;;;3.53;;
9140;SDS011;46330;50.822;7.126;2023-07-30T01:23:25;7.38;;;3.53;;
9140;SDS011;46330;50.822;7.126;2023-07-30T01:25:56;5.65;;;3.58;;
9140;SDS011;46330;50.822;7.126;2023-07-30T01:28:28;7.63;;;3.42;;
9140;SDS011;46330;50.822;7.126;2023-07-30T01:31:00;5.55;;;3.40;;
9140;SDS011;46330;50.822;7.126;2023-07-30T01:33:30;6.63;;;3.60;;
9140;SDS011;46330;50.822;7.126;2023-07-30T01:36:00;6.20;;;3.40;;
9140;SDS011;46330;50.822;7.126;2023-07-30T01:38:29;6.72;;;3.78;;
9140;SDS011;46330;50.822;7.126;2023-07-30T01:41:07;6.18;;;3.63;;
9140;SDS011;46330;50.822;7.126;2023-07-30T01:43:44;7.20;;;3.75;;
9140;SDS011;46330;50.822;7.126;2023-07-30T01:46:28;5.85;;;4.25;;
9140;SDS011;46330;50.822;7.126;2023-07-30T01:48:58;8.20;;;4.60;;
9140;SDS011;46330;50.822;7.126;2023-07-30T01:51:30;9.32;;;4.57;;
9140;SDS011;46330;50.822;7.126;2023-07-30T01:54:08;9.38;;;4.30;;
9140;SDS011;46330;50.822;7.126;2023-07-30T01:56:45;12.50;;;3.92;;
9140;SDS011;46330;50.822;7.126;2023-07-30T01:59:19;10.75;;;4.68;;
9140;SDS011;46330;50.822;7.126;2023-07-30T02:01:48;8.05;;;4.18;;
9140;SDS011;46330;50.822;7.126;2023-07-30T02:04:17;7.25;;;4.53;;
9140;SDS011;46330;50.822;7.126;2023-07-30T02:06:48;9.55;;;4.55;;
9140;SDS011;46330;50.822;7.126;2023-07-30T02:09:29;6.68;;;4.80;;
9140;SDS011;46330;50.822;7.126;2023-07-30T02:12:15;6.38;;;4.70;;
9140;SDS011;46330;50.822;7.126;2023-07-30T02:14:47;8.50;;;4.65;;
9140;SDS011;46330;50.822;7.126;2023-07-30T02:17:21;9.30;;;4.70;;
9140;SDS011;46330;50.822;7.126;2023-07-30T02:19:49;8.05;;;5.20;;
9140;SDS011;46330;50.822;7.126;2023-07-30T02:22:18;8.27;;;4.80;;
9140;SDS011;46330;50.822;7.126;2023-07-30T02:24:46;7.88;;;4.70;;
9140;SDS011;46330;50.822;7.126;2023-07-30T02:27:14;7.82;;;4.30;;
9140;SDS011;46330;50.822;7.126;2023-07-30T02:29:42;10.50;;;4.70;;
9140;SDS011;46330;50.822;7.126;2023-07-30T02:32:11;6.53;;;4.55;;
9140;SDS011;46330;50.822;7.126;2023-07-30T02:34:38;7.32;;;4.50;;
9140;SDS011;46330;50.822;7.126;2023-07-30T02:37:06;6.43;;;4.10;;
9140;SDS011;46330;50.822;7.126;2023-07-30T02:39:35;7.85;;;3.90;;
9140;SDS011;46330;50.822;7.126;2023-07-30T02:42:03;8.40;;;3.80;;
9140;SDS011;46330;50.822;7.126;2023-07-30T02:44:32;5.93;;;3.90;;
9140;SDS011;46330;50.822;7.126;2023-07-30T02:46:59;6.03;;;3.30;;
9140;SDS011;46330;50.822;7.126;2023-07-30T02:49:27;5.60;;;3.78;;
9140;SDS011;46330;50.822;7.126;2023-07-30T02:51:55;5.32;;;3.53;;
9140;SDS011;46330;50.822;7.126;2023-07-30T02:54:23;8.57;;;3.58;;
9140;SDS011;46330;50.822;7.126;2023-07-30T02:56:52;4.90;;;3.35;;
9140;SDS011;46330;50.822;7.126;2023-07-30T02:59:20;5.47;;;3.58;;
9140;SDS011;46330;50.822;7.126;2023-07-30T03:01:48;5.32;;;3.45;;
9140;SDS011;46330;50.822;7.126;2023-07-30T03:04:16;6.50;;;3.38;;
9140;SDS011;46330;50.822;7.126;2023-07-30T03:06:44;10.50;;;3.70;;
9140;SDS011;46330;50.822;7.126;2023-07-30T03:09:12;6.97;;;3.70;;
9140;SDS011;46330;50.822;7.126;2023-07-30T03:11:40;5.60;;;3.28;;
9140;SDS011;46330;50.822;7.126;2023-07-30T03:14:09;7.63;;;3.80;;
9140;SDS011;46330;50.822;7.126;2023-07-30T03:16:37;5.55;;;3.10;;
9140;SDS011;46330;50.822;7.126;2023-07-30T03:19:05;6.47;;;3.40;;
9140;SDS011;46330;50.822;7.126;2023-07-30T03:21:33;7.50;;;3.65;;
9140;SDS011;46330;50.822;7.126;2023-07-30T03:24:01;7.28;;;3.83;;
9140;SDS011;46330;50.822;7.126;2023-07-30T03:26:29;11.25;;;3.78;;
9140;SDS011;46330;50.822;7.126;2023-07-30T03:28:57;6.78;;;3.40;;
9140;SDS011;46330;50.822;7.126;2023-07-30T03:31:26;10.10;;;4.10;;
9140;SDS011;46330;50.822;7.126;2023-07-30T03:33:54;4.85;;;3.28;;
9140;SDS011;46330;50.822;7.126;2023-07-30T03:36:22;4.75;;;3.10;;
9140;SDS011;46330;50.822;7.126;2023-07-30T03:38:51;8.75;;;3.30;;
9140;SDS011;46330;50.822;7.126;2023-07-30T03:41:19;8.38;;;3.40;;
9140;SDS011;46330;50.822;7.126;2023-07-30T03:43:47;4.28;;;3.03;;
9140;SDS011;46330;50.822;7.126;2023-07-30T03:46:15;8.40;;;3.00;;
9140;SDS011;46330;50.822;7.126;2023-07-30T03:48:44;6.97;;;3.10;;
9140;SDS011;46330;50.822;7.126;2023-07-30T03:51:12;4.47;;;2.60;;
9140;SDS011;46330;50.822;7.126;2023-07-30T03:53:40;7.88;;;3.20;;
9140;SDS011;46330;50.822;7.126;2023-07-30T03:56:09;5.93;;;3.10;;
9140;SDS011;46330;50.822;7.126;2023-07-30T03:58:37;8.15;;;3.13;;
9140;SDS011;46330;50.822;7.126;2023-07-30T04:01:05;4.10;;;2.90;;
9140;SDS011;46330;50.822;7.126;2023-07-30T04:03:33;4.38;;;2.75;;
9140;SDS011;46330;50.822;7.126;2023-07-30T04:06:03;5.85;;;2.70;;
9140;SDS011;46330;50.822;7.126;2023-07-30T04:08:32;6.65;;;2.85;;
9140;SDS011;46330;50.822;7.126;2023-07-30T04:11:01;11.73;;;3.72;;
9140;SDS011;46330;50.822;7.126;2023-07-30T04:13:31;8.18;;;2.70;;
9140;SDS011;46330;50.822;7.126;2023-07-30T04:16:00;5.15;;;2.92;;
9140;SDS011;46330;50.822;7.126;2023-07-30T04:18:29;5.63;;;2.85;;
9140;SDS011;46330;50.822;7.126;2023-07-30T04:20:57;7.68;;;2.60;;
9140;SDS011;46330;50.822;7.126;2023-07-30T04:23:26;7.90;;;2.58;;
9140;SDS011;46330;50.822;7.126;2023-07-30T04:25:54;9.25;;;2.50;;
9140;SDS011;46330;50.822;7.126;2023-07-30T04:28:22;6.88;;;2.20;;
9140;SDS011;46330;50.822;7.126;2023-07-30T04:30:50;5.78;;;2.67;;
9140;SDS011;46330;50.822;7.126;2023-07-30T04:33:23;5.15;;;2.60;;
9140;SDS011;46330;50.822;7.126;2023-07-30T04:35:53;7.13;;;2.50;;
9140;SDS011;46330;50.822;7.126;2023-07-30T04:38:21;8.07;;;2.47;;
9140;SDS011;46330;50.822;7.126;2023-07-30T04:40:51;10.82;;;3.00;;
9140;SDS011;46330;50.822;7.126;2023-07-30T04:43:19;5.30;;;2.08;;
9140;SDS011;46330;50.822;7.126;2023-07-30T04:45:52;7.85;;;2.70;;
9140;SDS011;46330;50.822;7.126;2023-07-30T04:48:21;8.93;;;2.97;;
9140;SDS011;46330;50.822;7.126;2023-07-30T04:50:49;11.00;;;2.30;;
9140;SDS011;46330;50.822;7.126;2023-07-30T04:53:16;6.15;;;1.98;;
9140;SDS011;46330;50.822;7.126;2023-07-30T04:55:47;7.20;;;2.25;;
9140;SDS011;46330;50.822;7.126;2023-07-30T04:58:16;6.20;;;2.13;;
9140;SDS011;46330;50.822;7.126;2023-07-30T05:00:44;5.10;;;2.20;;
9140;SDS011;46330;50.822;7.126;2023-07-30T05:03:12;8.27;;;2.05;;
9140;SDS011;46330;50.822;7.126;2023-07-30T05:05:40;6.68;;;2.20;;
9140;SDS011;46330;50.822;7.126;2023-07-30T05:08:08;7.28;;;2.00;;
9140;SDS011;46330;50.822;7.126;2023-07-30T05:10:36;5.35;;;2.50;;
9140;SDS011;46330;50.822;7.126;2023-07-30T05:13:03;8.57;;;3.65;;
9140;SDS011;46330;50.822;7.126;2023-07-30T05:15:33;5.85;;;2.20;;
9140;SDS011;46330;50.822;7.126;2023-07-30T05:18:00;6.60;;;1.95;;
9140;SDS011;46330;50.822;7.126;2023-07-30T05:20:28;6.72;;;2.00;;
9140;SDS011;46330;50.822;7.126;2023-07-30T05:22:56;9.50;;;1.92;;
9140;SDS011;46330;50.822;7.126;2023-07-30T05:25:24;7.28;;;1.92;;
9140;SDS011;46330;50.822;7.126;2023-07-30T05:27:52;9.38;;;2.00;;
9140;SDS011;46330;50.822;7.126;2023-07-30T05:30:20;5.57;;;2.00;;
9140;SDS011;46330;50.822;7.126;2023-07-30T05:32:49;7.22;;;1.80;;
9140;SDS011;46330;50.822;7.126;2023-07-30T05:35:17;9.20;;;2.03;;
9140;SDS011;46330;50.822;7.126;2023-07-30T05:37:46;5.70;;;1.90;;
9140;SDS011;46330;50.822;7.126;2023-07-30T05:40:13;8.48;;;1.95;;
9140;SDS011;46330;50.822;7.126;2023-07-30T05:42:41;5.65;;;2.03;;
9140;SDS011;46330;50.822;7.126;2023-07-30T05:45:10;8.93;;;2.50;;
9140;SDS011;46330;50.822;7.126;2023-07-30T05:47:38;6.85;;;1.77;;
9140;SDS011;46330;50.822;7.126;2023-07-30T05:50:07;6.50;;;1.85;;
9140;SDS011;46330;50.822;7.126;2023-07-30T05:52:36;4.10;;;1.70;;
9140;SDS011;46330;50.822;7.126;2023-07-30T05:55:04;5.65;;;1.80;;
9140;SDS011;46330;50.822;7.126;2023-07-30T05:57:32;10.00;;;1.83;;
9140;SDS011;46330;50.822;7.126;2023-07-30T06:00:00;7.55;;;1.73;;
9140;SDS011;46330;50.822;7.126;2023-07-30T06:02:37;7.15;;;2.05;;
9140;SDS011;46330;50.822;7.126;2023-07-30T06:05:05;8.45;;;1.90;;
9140;SDS011;46330;50.822;7.126;2023-07-30T06:07:34;7.68;;;2.40;;
9140;SDS011;46330;50.822;7.126;2023-07-30T06:10:02;7.82;;;2.70;;
9140;SDS011;46330;50.822;7.126;2023-07-30T06:12:31;8.88;;;2.28;;
9140;SDS011;46330;50.822;7.126;2023-07-30T06:14:59;9.27;;;2.00;;
9140;SDS011;46330;50.822;7.126;2023-07-30T06:17:27;6.82;;;1.98;;
9140;SDS011;46330;50.822;7.126;2023-07-30T06:19:59;7.80;;;1.92;;
9140;SDS011;46330;50.822;7.126;2023-07-30T06:22:27;6.20;;;1.73;;
9140;SDS011;46330;50.822;7.126;2023-07-30T06:24:56;4.28;;;2.00;;
9140;SDS011;46330;50.822;7.126;2023-07-30T06:27:24;6.57;;;2.05;;
9140;SDS011;46330;50.822;7.126;2023-07-30T06:29:52;10.25;;;2.03;;
9140;SDS011;46330;50.822;7.126;2023-07-30T06:32:20;5.85;;;1.88;;
9140;SDS011;46330;50.822;7.126;2023-07-30T06:34:48;10.60;;;2.28;;
9140;SDS011;46330;50.822;7.126;2023-07-30T06:37:16;7.43;;;2.10;;
9140;SDS011;46330;50.822;7.126;2023-07-30T06:39:44;7.85;;;1.80;;
9140;SDS011;46330;50.822;7.126;2023-07-30T06:42:13;11.77;;;2.40;;
9140;SDS011;46330;50.822;7.126;2023-07-30T06:44:41;10.45;;;4.25;;
9140;SDS011;46330;50.822;7.126;2023-07-30T06:47:09;8.05;;;2.78;;
9140;SDS011;46330;50.822;7.126;2023-07-30T06:49:37;8.38;;;2.35;;
9140;SDS011;46330;50.822;7.126;2023-07-30T06:52:05;7.68;;;2.28;;
9140;SDS011;46330;50.822;7.126;2023-07-30T06:54:33;4.80;;;2.08;;
9140;SDS011;46330;50.822;7.126;2023-07-30T06:57:05;9.18;;;2.03;;
9140;SDS011;46330;50.822;7.126;2023-07-30T06:59:34;5.22;;;1.98;;
9140;SDS011;46330;50.822;7.126;2023-07-30T07:02:02;8.45;;;2.10;;
9140;SDS011;46330;50.822;7.126;2023-07-30T07:04:31;7.03;;;1.65;;
9140;SDS011;46330;50.822;7.126;2023-07-30T07:06:59;4.38;;;1.70;;
9140;SDS011;46330;50.822;7.126;2023-07-30T07:09:29;7.63;;;1.90;;
9140;SDS011;46330;50.822;7.126;2023-07-30T07:11:57;5.93;;;1.92;;
9140;SDS011;46330;50.822;7.126;2023-07-30T07:14:25;3.65;;;1.63;;
9140;SDS011;46330;50.822;7.126;2023-07-30T07:16:54;6.07;;;2.03;;
9140;SDS011;46330;50.822;7.126;2023-07-30T07:19:23;5.95;;;1.83;;
9140;SDS011;46330;50.822;7.126;2023-07-30T07:21:51;5.22;;;1.60;;
9140;SDS011;46330;50.822;7.126;2023-07-30T07:24:19;6.10;;;1.80;;
9140;SDS011;46330;50.822;7.126;2023-07-30T07:26:46;6.03;;;2.13;;
9140;SDS011;46330;50.822;7.126;2023-07-30T07:29:14;7.88;;;1.85;;
9140;SDS011;46330;50.822;7.126;2023-07-30T07:31:42;8.10;;;2.08;;
9140;SDS011;46330;50.822;7.126;2023-07-30T07:34:11;5.28;;;1.83;;
9140;SDS011;46330;50.822;7.126;2023-07-30T07:36:39;7.15;;;1.60;;
9140;SDS011;46330;50.822;7.126;2023-07-30T07:39:07;10.38;;;2.22;;
9140;SDS011;46330;50.822;7.126;2023-07-30T07:41:35;6.60;;;2.13;;
9140;SDS011;46330;50.822;7.126;2023-07-30T07:44:03;9.80;;;1.95;;
9140;SDS011;46330;50.822;7.126;2023-07-30T07:46:31;11.02;;;3.83;;
9140;SDS011;46330;50.822;7.126;2023-07-30T07:48:59;6.40;;;2.20;;
9140;SDS011;46330;50.822;7.126;2023-07-30T07:51:28;4.90;;;1.92;;
9140;SDS011;46330;50.822;7.126;2023-07-30T07:53:56;5.30;;;1.98;;
9140;SDS011;46330;50.822;7.126;2023-07-30T07:56:24;6.45;;;1.70;;
9140;SDS011;46330;50.822;7.126;2023-07-30T07:58:52;6.72;;;1.80;;
9140;SDS011;46330;50.822;7.126;2023-07-30T08:01:20;5.95;;;1.75;;
9140;SDS011;46330;50.822;7.126;2023-07-30T08:03:48;6.20;;;1.75;;
9140;SDS011;46330;50.822;7.126;2023-07-30T08:06:16;7.25;;;1.90;;
9140;SDS011;46330;50.822;7.126;2023-07-30T08:08:46;5.68;;;1.70;;
9140;SDS011;46330;50.822;7.126;2023-07-30T08:11:13;7.90;;;2.08;;
9140;SDS011;46330;50.822;7.126;2023-07-30T08:13:41;5.85;;;1.75;;
9140;SDS011;46330;50.822;7.126;2023-07-30T08:16:09;6.60;;;1.75;;
9140;SDS011;46330;50.822;7.126;2023-07-30T08:18:37;4.57;;;1.60;;
9140;SDS011;46330;50.822;7.126;2023-07-30T08:21:05;7.10;;;1.80;;
9140;SDS011;46330;50.822;7.126;2023-07-30T08:23:32;9.07;;;1.80;;
9140;SDS011;46330;50.822;7.126;2023-07-30T08:26:02;6.90;;;1.63;;
9140;SDS011;46330;50.822;7.126;2023-07-30T08:28:30;8.75;;;1.80;;
9140;SDS011;46330;50.822;7.126;2023-07-30T08:30:59;8.80;;;2.58;;
9140;SDS011;46330;50.822;7.126;2023-07-30T08:33:28;4.88;;;1.90;;
9140;SDS011;46330;50.822;7.126;2023-07-30T08:35:56;7.90;;;1.80;;
9140;SDS011;46330;50.822;7.126;2023-07-30T08:38:24;6.68;;;1.95;;
9140;SDS011;46330;50.822;7.126;2023-07-30T08:40:52;7.20;;;1.60;;
9140;SDS011;46330;50.822;7.126;2023-07-30T08:43:21;6.93;;;1.85;;
9140;SDS011;46330;50.822;7.126;2023-07-30T08:45:49;7.10;;;1.63;;
9140;SDS011;46330;50.822;7.126;2023-07-30T08:48:17;9.18;;;2.10;;
9140;SDS011;46330;50.822;7.126;2023-07-30T08:50:45;6.40;;;1.60;;
9140;SDS011;46330;50.822;7.126;2023-07-30T08:53:14;6.75;;;1.70;;
9140;SDS011;46330;50.822;7.126;2023-07-30T08:55:42;6.88;;;1.73;;
9140;SDS011;46330;50.822;7.126;2023-07-30T08:58:10;6.35;;;1.77;;
9140;SDS011;46330;50.822;7.126;2023-07-30T09:00:41;10.10;;;2.13;;
9140;SDS011;46330;50.822;7.126;2023-07-30T09:03:10;9.48;;;2.17;;
9140;SDS011;46330;50.822;7.126;2023-07-30T09:05:42;11.35;;;2.22;;
9140;SDS011;46330;50.822;7.126;2023-07-30T09:08:10;6.88;;;2.00;;
9140;SDS011;46330;50.822;7.126;2023-07-30T09:10:39;10.70;;;2.28;;
9140;SDS011;46330;50.822;7.126;2023-07-30T09:13:07;11.90;;;2.28;;
9140;SDS011;46330;50.822;7.126;2023-07-30T09:15:35;6.22;;;1.75;;
9140;SDS011;46330;50.822;7.126;2023-07-30T09:18:06;7.47;;;1.90;;
9140;SDS011;46330;50.822;7.126;2023-07-30T09:20:38;7.25;;;1.60;;
9140;SDS011;46330;50.822;7.126;2023-07-30T09:23:06;7.50;;;1.80;;
9140;SDS011;46330;50.822;7.126;2023-07-30T09:25:35;8.52;;;1.60;;
9140;SDS011;46330;50.822;7.126;2023-07-30T09:28:04;9.15;;;2.08;;
9140;SDS011;46330;50.822;7.126;2023-07-30T09:30:33;6.97;;;1.60;;
9140;SDS011;46330;50.822;7.126;2023-07-30T09:33:01;7.22;;;1.60;;
9140;SDS011;46330;50.822;7.126;2023-07-30T09:35:32;7.28;;;1.73;;
9140;SDS011;46330;50.822;7.126;2023-07-30T09:38:02;6.13;;;1.70;;
9140;SDS011;46330;50.822;7.126;2023-07-30T09:40:31;8.57;;;1.67;;
9140;SDS011;46330;50.822;7.126;2023-07-30T09:43:00;7.78;;;1.70;;
9140;SDS011;46330;50.822;7.126;2023-07-30T09:45:32;7.82;;;1.52;;
9140;SDS011;46330;50.822;7.126;2023-07-30T09:48:02;10.10;;;1.73;;
9140;SDS011;46330;50.822;7.126;2023-07-30T09:50:32;5.88;;;1.40;;
9140;SDS011;46330;50.822;7.126;2023-07-30T09:53:01;3.97;;;1.45;;
9140;SDS011;46330;50.822;7.126;2023-07-30T09:55:30;7.68;;;1.73;;
9140;SDS011;46330;50.822;7.126;2023-07-30T09:57:58;7.55;;;1.60;;
9140;SDS011;46330;50.822;7.126;2023-07-30T10:00:26;9.18;;;1.58;;
9140;SDS011;46330;50.822;7.126;2023-07-30T10:02:57;5.55;;;1.45;;
9140;SDS011;46330;50.822;7.126;2023-07-30T10:05:29;5.65;;;1.52;;
9140;SDS011;46330;50.822;7.126;2023-07-30T10:08:03;7.28;;;1.75;;
9140;SDS011;46330;50.822;7.126;2023-07-30T10:10:36;6.38;;;1.63;;
9140;SDS011;46330;50.822;7.126;2023-07-30T10:13:05;4.93;;;1.40;;
9140;SDS011;46330;50.822;7.126;2023-07-30T10:15:35;3.90;;;1.48;;
9140;SDS011;46330;50.822;7.126;2023-07-30T10:18:05;7.30;;;1.70;;
9140;SDS011;46330;50.822;7.126;2023-07-30T10:20:35;6.28;;;1.70;;
9140;SDS011;46330;50.822;7.126;2023-07-30T10:23:04;6.43;;;1.65;;
9140;SDS011;46330;50.822;7.126;2023-07-30T10:25:42;7.10;;;1.50;;
9140;SDS011;46330;50.822;7.126;2023-07-30T10:28:25;6.35;;;1.95;;
9140;SDS011;46330;50.822;7.126;2023-07-30T10:30:55;9.40;;;1.50;;
9140;SDS011;46330;50.822;7.126;2023-07-30T10:33:27;4.85;;;1.40;;
9140;SDS011;46330;50.822;7.126;2023-07-30T10:36:13;6.28;;;1.60;;
9140;SDS011;46330;50.822;7.126;2023-07-30T10:38:41;7.95;;;1.60;;
9140;SDS011;46330;50.822;7.126;2023-07-30T10:41:10;6.28;;;1.50;;
9140;SDS011;46330;50.822;7.126;2023-07-30T10:43:40;6.93;;;1.67;;
9140;SDS011;46330;50.822;7.126;2023-07-30T10:46:10;6.30;;;1.55;;
9140;SDS011;46330;50.822;7.126;2023-07-30T10:48:40;5.60;;;1.63;;
9140;SDS011;46330;50.822;7.126;2023-07-30T10:51:11;7.05;;;1.50;;
9140;SDS011;46330;50.822;7.126;2023-07-30T10:53:42;6.28;;;1.40;;
9140;SDS011;46330;50.822;7.126;2023-07-30T10:56:10;5.95;;;1.40;;
9140;SDS011;46330;50.822;7.126;2023-07-30T10:58:39;7.13;;;1.60;;
9140;SDS011;46330;50.822;7.126;2023-07-30T11:01:07;6.30;;;1.40;;
9140;SDS011;46330;50.822;7.126;2023-07-30T11:03:37;6.63;;;1.60;;
9140;SDS011;46330;50.822;7.126;2023-07-30T11:06:05;4.90;;;1.30;;
9140;SDS011;46330;50.822;7.126;2023-07-30T11:08:36;8.18;;;1.50;;
9140;SDS011;46330;50.822;7.126;2023-07-30T11:11:06;5.78;;;1.50;;
9140;SDS011;46330;50.822;7.126;2023-07-30T11:13:35;5.47;;;2.35;;
9140;SDS011;46330;50.822;7.126;2023-07-30T11:16:04;4.22;;;1.10;;
9140;SDS011;46330;50.822;7.126;2023-07-30T11:18:33;6.45;;;1.50;;
9140;SDS011;46330;50.822;7.126;2023-07-30T11:21:02;6.72;;;1.63;;
9140;SDS011;46330;50.822;7.126;2023-07-30T11:23:31;4.93;;;1.30;;
9140;SDS011;46330;50.822;7.126;2023-07-30T11:26:01;4.35;;;1.10;;
9140;SDS011;46330;50.822;7.126;2023-07-30T11:28:29;6.60;;;1.63;;
9140;SDS011;46330;50.822;7.126;2023-07-30T11:31:02;5.03;;;1.40;;
9140;SDS011;46330;50.822;7.126;2023-07-30T11:33:32;3.78;;;1.40;;
9140;SDS011;46330;50.822;7.126;2023-07-30T11:36:02;6.65;;;1.58;;
9140;SDS011;46330;50.822;7.126;2023-07-30T11:38:31;5.18;;;2.00;;
9140;SDS011;46330;50.822;7.126;2023-07-30T11:41:01;6.70;;;2.10;;
9140;SDS011;46330;50.822;7.126;2023-07-30T11:43:29;3.58;;;1.30;;
9140;SDS011;46330;50.822;7.126;2023-07-30T11:48:50;5.28;;;1.65;;
9140;SDS011;46330;50.822;7.126;2023-07-30T11:51:20;3.67;;;1.20;;
9140;SDS011;46330;50.822;7.126;2023-07-30T11:53:50;3.65;;;1.23;;
9140;SDS011;46330;50.822;7.126;2023-07-30T11:56:21;6.72;;;1.30;;
9140;SDS011;46330;50.822;7.126;2023-07-30T11:58:53;3.17;;;1.10;;
9140;SDS011;46330;50.822;7.126;2023-07-30T12:01:23;4.13;;;1.05;;
9140;SDS011;46330;50.822;7.126;2023-07-30T12:03:53;4.85;;;1.27;;
9140;SDS011;46330;50.822;7.126;2023-07-30T12:06:22;3.33;;;0.80;;
9140;SDS011;46330;50.822;7.126;2023-07-30T12:08:50;2.97;;;0.93;;
9140;SDS011;46330;50.822;7.126;2023-07-30T12:11:18;5.32;;;1.50;;
9140;SDS011;46330;50.822;7.126;2023-07-30T12:13:48;4.22;;;0.98;;
9140;SDS011;46330;50.822;7.126;2023-07-30T12:16:16;3.88;;;1.00;;
9140;SDS011;46330;50.822;7.126;2023-07-30T12:18:47;8.07;;;1.30;;
9140;SDS011;46330;50.822;7.126;2023-07-30T12:21:15;4.18;;;1.25;;
9140;SDS011;46330;50.822;7.126;2023-07-30T12:23:43;3.55;;;1.00;;
9140;SDS011;46330;50.822;7.126;2023-07-30T12:26:11;3.80;;;1.10;;
9140;SDS011;46330;50.822;7.126;2023-07-30T12:28:40;3.63;;;1.15;;
9140;SDS011;46330;50.822;7.126;2023-07-30T12:31:08;6.15;;;1.30;;
9140;SDS011;46330;50.822;7.126;2023-07-30T12:33:36;5.13;;;0.93;;
9140;SDS011;46330;50.822;7.126;2023-07-30T12:36:04;3.63;;;1.15;;
9140;SDS011;46330;50.822;7.126;2023-07-30T12:38:32;5.25;;;1.45;;
9140;SDS011;46330;50.822;7.126;2023-07-30T12:41:00;4.35;;;1.15;;
9140;SDS011;46330;50.822;7.126;2023-07-30T12:43:28;4.30;;;1.30;;
9140;SDS011;46330;50.822;7.126;2023-07-30T12:45:57;6.57;;;1.20;;
9140;SDS011;46330;50.822;7.126;2023-07-30T12:48:25;6.25;;;1.10;;
9140;SDS011;46330;50.822;7.126;2023-07-30T12:50:53;6.35;;;1.23;;
9140;SDS011;46330;50.822;7.126;2023-07-30T12:53:23;2.70;;;1.20;;
9140;SDS011;46330;50.822;7.126;2023-07-30T12:55:52;6.50;;;1.23;;
9140;SDS011;46330;50.822;7.126;2023-07-30T12:58:19;3.85;;;1.10;;
9140;SDS011;46330;50.822;7.126;2023-07-30T13:00:47;5.78;;;1.20;;
9140;SDS011;46330;50.822;7.126;2023-07-30T13:03:16;3.67;;;1.10;;
9140;SDS011;46330;50.822;7.126;2023-07-30T13:05:44;5.50;;;1.50;;
9140;SDS011;46330;50.822;7.126;2023-07-30T13:08:12;5.10;;;1.27;;
9140;SDS011;46330;50.822;7.126;2023-07-30T13:10:40;6.00;;;1.48;;
9140;SDS011;46330;50.822;7.126;2023-07-30T13:13:08;6.65;;;1.33;;
9140;SDS011;46330;50.822;7.126;2023-07-30T13:15:36;3.67;;;1.30;;
9140;SDS011;46330;50.822;7.126;2023-07-30T13:18:04;3.90;;;1.20;;
9140;SDS011;46330;50.822;7.126;2023-07-30T13:20:33;7.95;;;1.38;;
9140;SDS011;46330;50.822;7.126;2023-07-30T13:23:01;3.28;;;1.27;;
9140;SDS011;46330;50.822;7.126;2023-07-30T13:25:28;5.28;;;1.50;;
9140;SDS011;46330;50.822;7.126;2023-07-30T13:27:56;7.90;;;1.25;;
9140;SDS011;46330;50.822;7.126;2023-07-30T13:30:24;5.25;;;1.20;;
9140;SDS011;46330;50.822;7.126;2023-07-30T13:32:52;5.18;;;1.30;;
9140;SDS011;46330;50.822;7.126;2023-07-30T13:35:20;3.55;;;1.42;;
9140;SDS011;46330;50.822;7.126;2023-07-30T13:37:49;7.00;;;1.25;;
9140;SDS011;46330;50.822;7.126;2023-07-30T13:40:17;5.85;;;2.33;;
9140;SDS011;46330;50.822;7.126;2023-07-30T13:42:45;4.05;;;1.30;;
9140;SDS011;46330;50.822;7.126;2023-07-30T13:45:13;6.72;;;1.70;;
9140;SDS011;46330;50.822;7.126;2023-07-30T13:47:41;4.22;;;1.25;;
9140;SDS011;46330;50.822;7.126;2023-07-30T13:50:09;6.32;;;1.40;;
9140;SDS011;46330;50.822;7.126;2023-07-30T13:52:37;4.82;;;1.10;;
9140;SDS011;46330;50.822;7.126;2023-07-30T13:55:07;5.15;;;1.35;;
9140;SDS011;46330;50.822;7.126;2023-07-30T13:57:35;5.50;;;1.48;;
9140;SDS011;46330;50.822;7.126;2023-07-30T14:00:03;5.18;;;1.20;;
9140;SDS011;46330;50.822;7.126;2023-07-30T14:02:33;5.68;;;1.40;;
9140;SDS011;46330;50.822;7.126;2023-07-30T14:05:01;3.45;;;1.33;;
9140;SDS011;46330;50.822;7.126;2023-07-30T14:07:29;5.93;;;1.40;;
9140;SDS011;46330;50.822;7.126;2023-07-30T14:09:57;3.72;;;1.30;;
9140;SDS011;46330;50.822;7.126;2023-07-30T14:12:26;4.70;;;1.50;;
9140;SDS011;46330;50.822;7.126;2023-07-30T14:14:54;4.45;;;1.30;;
9140;SDS011;46330;50.822;7.126;2023-07-30T14:17:22;4.78;;;1.42;;
9140;SDS011;46330;50.822;7.126;2023-07-30T14:19:50;6.22;;;1.50;;
9140;SDS011;46330;50.822;7.126;2023-07-30T14:22:17;3.75;;;1.55;;
9140;SDS011;46330;50.822;7.126;2023-07-30T14:24:45;3.35;;;1.08;;
9140;SDS011;46330;50.822;7.126;2023-07-30T14:27:13;5.88;;;1.33;;
9140;SDS011;46330;50.822;7.126;2023-07-30T14:29:43;5.03;;;1.38;;
9140;SDS011;46330;50.822;7.126;2023-07-30T14:32:10;2.38;;;1.35;;
9140;SDS011;46330;50.822;7.126;2023-07-30T14:34:38;3.35;;;1.40;;
9140;SDS011;46330;50.822;7.126;2023-07-30T14:37:06;3.13;;;1.20;;
9140;SDS011;46330;50.822;7.126;2023-07-30T14:39:35;3.60;;;1.10;;
9140;SDS011;46330;50.822;7.126;2023-07-30T14:42:03;6.85;;;1.45;;
9140;SDS011;46330;50.822;7.126;2023-07-30T14:44:32;3.67;;;1.17;;
9140;SDS011;46330;50.822;7.126;2023-07-30T14:47:01;5.15;;;1.25;;
9140;SDS011;46330;50.822;7.126;2023-07-30T14:49:31;4.35;;;1.30;;
9140;SDS011;46330;50.822;7.126;2023-07-30T14:51:58;4.00;;;1.25;;
9140;SDS011;46330;50.822;7.126;2023-07-30T14:54:26;4.50;;;1.27;;
9140;SDS011;46330;50.822;7.126;2023-07-30T14:56:54;4.18;;;1.27;;
9140;SDS011;46330;50.822;7.126;2023-07-30T14:59:22;4.25;;;1.23;;
9140;SDS011;46330;50.822;7.126;2023-07-30T15:01:51;3.45;;;1.33;;
9140;SDS011;46330;50.822;7.126;2023-07-30T15:04:20;5.22;;;1.13;;
9140;SDS011;46330;50.822;7.126;2023-07-30T15:06:48;3.25;;;1.08;;
9140;SDS011;46330;50.822;7.126;2023-07-30T15:09:16;5.63;;;1.33;;
9140;SDS011;46330;50.822;7.126;2023-07-30T15:11:44;4.55;;;1.40;;
9140;SDS011;46330;50.822;7.126;2023-07-30T15:14:12;6.03;;;1.60;;
9140;SDS011;46330;50.822;7.126;2023-07-30T15:16:40;3.63;;;1.23;;